Ten Mile, Mississippi
Current Conditions -  °F | °C
As of 2:53 AM on Monday 24 Nov 2014 (Local Time) from KGPT Reporting Station
Moderate Fog Moderate Fog  
Wind Chill: 65°   Ceiling: 200
Heat Index: 65°   Visibility: 0.25mi
Dew Point: 65°   Wind: 5mph
Humidity: 100%   Direction: NA
Pressure: 29.75"   Gusts: NA
Location:  30.7239°N, 89.1669°W
Report Text: KGPT 240853Z AUTO VRB04KT 1/4SM FG VV002 18/18 A2975 RMK AO2 SLP075 T01830183 51002 RVRNO
Loading
Personal Weather Stations






























Interactive Weather Map New forecast layout! Learn more

10-Day Weather Forecast

Advertisements
Track Severe Weather on mobile